Time;durP1;ratioP1;P1;durP2;ratioP2;P2;SDS_P1;SDS_P2;PMS_P1;PMS_P2;Temp;Humidity;BMP_temperature;BMP_pressure;BME280_temperature;BME280_humidity;BME280_pressure;Samples;Min_cycle;Max_cycle;Signal;HPM_P1;HPM_P2
2022/08/17 00:00:46;;;;;;;;;;;23.30;67.90;;;;;;5085366;28;19912;-67
2022/08/17 00:03:11;;;;;;;;;;;23.30;68.20;;;;;;5069025;28;19920;-67
2022/08/17 00:05:40;;;;;;;;;;;23.30;68.60;;;;;;5066672;28;19912;-67
2022/08/17 00:08:05;;;;;;;;;;;23.30;68.60;;;;;;5066488;28;19908;-67
2022/08/17 00:10:31;;;;;;;;;;;23.20;68.70;;;;;;5069007;28;19921;-67
2022/08/17 00:12:57;;;;;;;;;;;23.20;68.60;;;;;;5067587;28;20157;-67
2022/08/17 00:15:22;;;;;;;;;;;23.20;68.60;;;;;;5066688;28;19923;-67
2022/08/17 00:17:49;;;;;;;;;;;23.20;68.30;;;;;;5065924;28;19939;-66
2022/08/17 00:20:15;;;;;;;;;;;23.10;68.40;;;;;;5072679;28;19912;-66
2022/08/17 00:22:40;;;;;;;;;;;23.10;68.50;;;;;;5066595;28;19946;-67
2022/08/17 00:25:08;;;;;;;;;;;23.10;68.40;;;;;;5067413;28;19941;-67
2022/08/17 00:27:34;;;;;;;;;;;23.10;68.70;;;;;;5066509;28;20392;-67
2022/08/17 00:30:00;;;;;;;;;;;23.10;68.50;;;;;;5066327;28;19915;-67
2022/08/17 00:32:25;;;;;;;;;;;23.10;68.90;;;;;;5074778;28;19913;-67
2022/08/17 00:34:51;;;;;;;;;;;23.10;69.10;;;;;;5065945;28;20010;-67
2022/08/17 00:37:17;;;;;;;;;;;23.00;69.20;;;;;;5066022;28;19919;-67
2022/08/17 00:39:42;;;;;;;;;;;23.00;69.30;;;;;;5081952;28;20700;-67
2022/08/17 00:42:12;;;;;;;;;;;23.00;69.20;;;;;;5066078;28;19916;-67
2022/08/17 00:44:38;;;;;;;;;;;23.00;69.20;;;;;;5066214;28;19912;-67
2022/08/17 00:47:03;;;;;;;;;;;22.90;69.00;;;;;;5066195;28;19920;-67
2022/08/17 00:49:30;;;;;;;;;;;22.90;69.10;;;;;;5068648;28;20402;-67
2022/08/17 00:51:57;;;;;;;;;;;22.90;69.00;;;;;;5065186;28;20014;-67
2022/08/17 00:54:25;;;;;;;;;;;22.90;68.90;;;;;;5068171;28;20054;-67
2022/08/17 00:56:59;;;;;;;;;;;22.90;69.00;;;;;;5066052;28;19966;-67
2022/08/17 00:59:27;;;;;;;;;;;22.90;69.40;;;;;;5065789;28;19916;-67
2022/08/17 01:01:52;;;;;;;;;;;22.90;69.60;;;;;;5067708;28;19979;-67
2022/08/17 01:04:19;;;;;;;;;;;22.90;69.70;;;;;;5066069;28;20386;-67
2022/08/17 01:06:47;;;;;;;;;;;22.80;69.80;;;;;;5065858;28;20444;-67
2022/08/17 01:09:13;;;;;;;;;;;22.80;69.80;;;;;;5065790;28;19978;-67
2022/08/17 01:11:39;;;;;;;;;;;22.80;69.90;;;;;;5065608;28;20023;-67
2022/08/17 01:14:05;;;;;;;;;;;22.80;69.70;;;;;;5066165;28;19913;-67
2022/08/17 01:16:31;;;;;;;;;;;22.70;69.90;;;;;;5066033;28;20665;-67
2022/08/17 01:19:06;;;;;;;;;;;22.80;69.80;;;;;;5068309;28;19912;-67
2022/08/17 01:22:07;;;;;;;;;;;22.70;69.70;;;;;;5065727;28;19966;-67
2022/08/17 01:24:34;;;;;;;;;;;22.70;70.00;;;;;;5042219;28;20021;-67
2022/08/17 01:27:00;;;;;;;;;;;22.70;70.00;;;;;;5062092;28;20284;-67
2022/08/17 01:29:29;;;;;;;;;;;22.60;70.10;;;;;;5080734;28;19912;-67
2022/08/17 01:31:56;;;;;;;;;;;22.70;70.20;;;;;;5071132;28;19919;-66
2022/08/17 01:34:23;;;;;;;;;;;22.60;70.30;;;;;;5084590;28;19912;-66
2022/08/17 01:36:50;;;;;;;;;;;22.60;70.20;;;;;;5085119;28;19912;-66
2022/08/17 01:39:34;;;;;;;;;;;22.60;70.30;;;;;;5084357;28;19923;-66
2022/08/17 01:42:04;;;;;;;;;;;22.60;70.40;;;;;;5084811;28;19912;-66
2022/08/17 01:44:30;;;;;;;;;;;22.50;70.40;;;;;;5074819;28;19913;-66
2022/08/17 01:46:56;;;;;;;;;;;22.50;70.50;;;;;;5065622;28;19919;-66
2022/08/17 01:49:21;;;;;;;;;;;22.50;70.50;;;;;;5067867;28;19912;-66
2022/08/17 01:51:47;;;;;;;;;;;22.50;70.50;;;;;;5065364;28;19913;-66
2022/08/17 01:54:14;;;;;;;;;;;22.50;70.70;;;;;;5064853;28;19916;-66
2022/08/17 01:56:41;;;;;;;;;;;22.50;70.70;;;;;;5077815;28;19911;-66
2022/08/17 01:59:07;;;;;;;;;;;22.40;70.70;;;;;;5084807;28;19912;-66
2022/08/17 02:01:33;;;;;;;;;;;22.40;70.90;;;;;;5078074;28;19924;-66
2022/08/17 02:04:00;;;;;;;;;;;22.40;70.90;;;;;;5081223;28;20292;-66
2022/08/17 02:06:25;;;;;;;;;;;22.40;71.00;;;;;;5065204;28;19916;-66
2022/08/17 02:08:51;;;;;;;;;;;22.30;70.90;;;;;;5068709;28;19916;-66
2022/08/17 02:11:18;;;;;;;;;;;22.30;71.00;;;;;;5068109;28;19908;-66
2022/08/17 02:13:44;;;;;;;;;;;22.30;71.10;;;;;;5085762;28;19999;-66
2022/08/17 02:16:10;;;;;;;;;;;22.30;71.10;;;;;;5070537;28;19912;-66
2022/08/17 02:18:35;;;;;;;;;;;22.30;71.10;;;;;;5069523;28;19958;-66
2022/08/17 02:21:01;;;;;;;;;;;22.30;71.30;;;;;;5086574;28;20319;-66
2022/08/17 02:23:28;;;;;;;;;;;22.20;71.20;;;;;;5088023;28;19915;-66
2022/08/17 02:25:54;;;;;;;;;;;22.20;71.30;;;;;;5087655;28;19957;-66
2022/08/17 02:28:20;;;;;;;;;;;22.20;71.30;;;;;;5087786;28;19928;-66
2022/08/17 02:30:45;;;;;;;;;;;22.20;71.40;;;;;;5087855;28;19947;-66
2022/08/17 02:33:11;;;;;;;;;;;22.20;71.40;;;;;;5078543;28;19990;-66
2022/08/17 02:35:37;;;;;;;;;;;22.20;71.50;;;;;;5076291;28;19942;-66
2022/08/17 02:38:04;;;;;;;;;;;22.10;71.50;;;;;;5078411;28;20295;-66
2022/08/17 02:40:29;;;;;;;;;;;22.10;71.50;;;;;;5082696;28;19916;-66
2022/08/17 02:42:55;;;;;;;;;;;22.10;71.50;;;;;;5076729;28;19908;-66
2022/08/17 02:45:21;;;;;;;;;;;22.10;71.60;;;;;;5081380;28;20416;-66
2022/08/17 02:47:47;;;;;;;;;;;22.10;71.60;;;;;;5083504;28;19959;-66
2022/08/17 02:50:14;;;;;;;;;;;22.10;71.70;;;;;;5081264;28;19962;-66
2022/08/17 02:52:41;;;;;;;;;;;22.00;71.70;;;;;;5080135;28;20654;-66
2022/08/17 02:55:10;;;;;;;;;;;22.00;71.80;;;;;;5079543;28;19917;-65
2022/08/17 02:57:36;;;;;;;;;;;22.00;71.80;;;;;;5078375;28;19908;-66
2022/08/17 03:00:04;;;;;;;;;;;22.00;71.90;;;;;;5078357;28;19989;-66
2022/08/17 03:02:29;;;;;;;;;;;22.00;71.90;;;;;;5081418;28;19912;-65
2022/08/17 03:04:55;;;;;;;;;;;22.00;72.00;;;;;;5078981;28;19911;-66
2022/08/17 03:07:21;;;;;;;;;;;22.00;72.10;;;;;;5085172;28;19920;-66
2022/08/17 03:09:46;;;;;;;;;;;21.90;72.00;;;;;;5078169;28;20376;-65
2022/08/17 03:12:13;;;;;;;;;;;21.90;72.10;;;;;;5080570;28;20020;-66
2022/08/17 03:14:39;;;;;;;;;;;21.90;72.10;;;;;;5075291;28;19930;-66
2022/08/17 03:17:05;;;;;;;;;;;21.90;72.10;;;;;;5077766;28;19912;-66
2022/08/17 03:19:31;;;;;;;;;;;21.90;72.20;;;;;;5074174;28;20486;-65
2022/08/17 03:21:57;;;;;;;;;;;21.80;72.20;;;;;;5083528;28;19908;-66
2022/08/17 03:24:23;;;;;;;;;;;21.80;72.30;;;;;;5076400;28;19923;-66
2022/08/17 03:26:48;;;;;;;;;;;21.80;72.30;;;;;;5078663;28;19995;-66
2022/08/17 03:29:17;;;;;;;;;;;21.80;73.10;;;;;;5076283;28;19911;-66
2022/08/17 03:31:46;;;;;;;;;;;21.80;72.40;;;;;;5081059;28;19916;-66
2022/08/17 03:34:12;;;;;;;;;;;21.80;72.50;;;;;;5078164;28;19912;-66
2022/08/17 03:36:37;;;;;;;;;;;21.80;72.50;;;;;;5076399;28;19912;-66
2022/08/17 03:39:03;;;;;;;;;;;21.80;72.60;;;;;;5081208;28;20387;-65
2022/08/17 03:41:29;;;;;;;;;;;21.70;72.50;;;;;;5076162;28;19994;-66
2022/08/17 03:43:54;;;;;;;;;;;21.70;72.70;;;;;;5078073;28;19949;-66
2022/08/17 03:57:18;;;;;;;;;;;21.70;72.90;;;;;;5073414;28;19979;-66
2022/08/17 03:59:44;;;;;;;;;;;21.60;72.70;;;;;;5077841;28;20019;-66
2022/08/17 04:02:12;;;;;;;;;;;21.60;72.90;;;;;;5081110;28;19912;-66
2022/08/17 04:04:38;;;;;;;;;;;21.60;72.90;;;;;;5077280;28;19912;-66
2022/08/17 04:07:04;;;;;;;;;;;21.60;72.90;;;;;;5080830;28;19913;-66
2022/08/17 04:09:29;;;;;;;;;;;21.60;72.90;;;;;;5073823;28;20013;-65
2022/08/17 04:11:56;;;;;;;;;;;21.60;73.00;;;;;;5080726;28;19920;-66
2022/08/17 04:14:21;;;;;;;;;;;21.60;73.10;;;;;;5075138;28;19920;-66
2022/08/17 04:16:47;;;;;;;;;;;21.50;73.00;;;;;;5080092;28;20282;-66
2022/08/17 04:19:12;;;;;;;;;;;21.50;73.10;;;;;;5071966;28;19912;-65
2022/08/17 04:21:38;;;;;;;;;;;21.50;73.10;;;;;;5077186;28;19995;-66
2022/08/17 04:24:04;;;;;;;;;;;21.50;73.10;;;;;;5066711;28;19951;-65
2022/08/17 04:26:30;;;;;;;;;;;21.50;73.20;;;;;;5078608;28;20008;-66
2022/08/17 04:28:57;;;;;;;;;;;21.50;73.30;;;;;;5072375;28;20491;-66
2022/08/17 04:31:23;;;;;;;;;;;21.50;73.30;;;;;;5079557;28;19959;-66
2022/08/17 04:33:49;;;;;;;;;;;21.50;73.20;;;;;;5072106;28;19912;-66
2022/08/17 04:36:14;;;;;;;;;;;21.40;73.30;;;;;;5078653;28;19908;-66
2022/08/17 04:38:41;;;;;;;;;;;21.40;73.30;;;;;;5076990;28;19995;-66
2022/08/17 04:43:54;;;;;;;;;;;21.40;73.40;;;;;;5078192;28;20047;-66
2022/08/17 04:46:23;;;;;;;;;;;21.40;73.40;;;;;;5077143;28;19912;-66
2022/08/17 04:48:51;;;;;;;;;;;21.40;73.40;;;;;;5074039;28;19922;-65
2022/08/17 04:51:22;;;;;;;;;;;21.40;73.40;;;;;;5076393;28;19919;-66
2022/08/17 04:53:49;;;;;;;;;;;21.40;73.50;;;;;;5077269;28;20058;-65
2022/08/17 04:56:15;;;;;;;;;;;21.40;73.40;;;;;;5075032;28;19912;-66
2022/08/17 04:58:46;;;;;;;;;;;21.40;73.40;;;;;;5074159;28;19920;-66
2022/08/17 05:01:12;;;;;;;;;;;21.40;73.50;;;;;;5081727;28;19924;-66
2022/08/17 05:03:38;;;;;;;;;;;21.40;73.40;;;;;;5073194;28;19920;-66
2022/08/17 05:06:04;;;;;;;;;;;21.40;73.40;;;;;;5083535;28;19912;-65
2022/08/17 05:08:30;;;;;;;;;;;21.40;73.50;;;;;;5073727;28;19908;-66
2022/08/17 05:10:55;;;;;;;;;;;21.40;73.40;;;;;;5080788;28;20639;-66
2022/08/17 05:13:22;;;;;;;;;;;21.40;73.40;;;;;;5073117;28;19923;-66
2022/08/17 05:15:49;;;;;;;;;;;21.30;73.30;;;;;;5078821;28;19912;-66
2022/08/17 05:18:15;;;;;;;;;;;21.40;73.40;;;;;;5072292;28;19912;-65
2022/08/17 05:20:41;;;;;;;;;;;21.40;73.40;;;;;;5076728;28;20268;-66
2022/08/17 05:23:09;;;;;;;;;;;21.40;73.50;;;;;;5077165;28;19916;-66
2022/08/17 05:25:36;;;;;;;;;;;21.40;73.50;;;;;;5079646;28;19937;-66
2022/08/17 05:28:02;;;;;;;;;;;21.40;73.40;;;;;;5069582;28;19912;-66
2022/08/17 05:30:27;;;;;;;;;;;21.40;73.30;;;;;;5080988;28;20340;-66
2022/08/17 05:32:54;;;;;;;;;;;21.40;73.30;;;;;;5082211;28;19971;-65
2022/08/17 05:35:20;;;;;;;;;;;21.40;73.40;;;;;;5081178;28;19909;-66
2022/08/17 05:37:46;;;;;;;;;;;21.40;73.50;;;;;;5069533;28;19923;-66
2022/08/17 05:40:12;;;;;;;;;;;21.40;73.70;;;;;;5078646;28;19917;-66
2022/08/17 05:42:38;;;;;;;;;;;21.40;72.80;;;;;;5074533;28;19912;-65
2022/08/17 05:45:03;;;;;;;;;;;21.40;72.70;;;;;;5081899;28;19951;-66
2022/08/17 05:47:29;;;;;;;;;;;21.50;73.00;;;;;;5081938;28;20501;-66
2022/08/17 05:49:55;;;;;;;;;;;21.50;72.70;;;;;;5081624;28;20260;-66
2022/08/17 05:52:36;;;;;;;;;;;21.40;72.70;;;;;;5079100;28;20342;-66
2022/08/17 05:55:12;;;;;;;;;;;21.50;72.70;;;;;;5077471;28;19916;-65
2022/08/17 05:57:58;;;;;;;;;;;21.50;72.70;;;;;;5078625;28;19995;-66
2022/08/17 06:00:25;;;;;;;;;;;21.50;72.60;;;;;;5083070;28;19974;-66
2022/08/17 06:02:56;;;;;;;;;;;21.60;72.60;;;;;;5081051;28;19912;-66
2022/08/17 06:05:34;;;;;;;;;;;21.60;72.60;;;;;;5083173;28;19966;-66
2022/08/17 06:07:59;;;;;;;;;;;21.60;72.40;;;;;;5078812;28;19991;-66
2022/08/17 06:10:30;;;;;;;;;;;21.70;72.50;;;;;;5081747;28;20101;-66
2022/08/17 06:13:05;;;;;;;;;;;21.70;72.50;;;;;;5076438;28;19960;-66
2022/08/17 06:15:43;;;;;;;;;;;21.70;72.50;;;;;;5081176;28;19915;-66
2022/08/17 06:18:09;;;;;;;;;;;21.70;72.50;;;;;;5075069;28;19912;-66
2022/08/17 06:20:46;;;;;;;;;;;21.70;72.50;;;;;;5079440;28;19912;-66
2022/08/17 06:23:13;;;;;;;;;;;21.80;72.50;;;;;;5073271;28;19918;-66
2022/08/17 06:25:44;;;;;;;;;;;21.90;72.50;;;;;;5081978;28;19919;-66
2022/08/17 06:28:13;;;;;;;;;;;21.90;72.50;;;;;;5073863;28;19916;-66
2022/08/17 06:30:56;;;;;;;;;;;21.90;72.50;;;;;;5079719;28;20635;-66
2022/08/17 06:33:25;;;;;;;;;;;21.90;72.40;;;;;;5084002;28;19938;-66
2022/08/17 06:36:11;;;;;;;;;;;22.00;72.40;;;;;;5080247;28;19920;-66
2022/08/17 06:38:42;;;;;;;;;;;22.00;72.40;;;;;;5084399;28;19912;-66
2022/08/17 06:41:11;;;;;;;;;;;22.00;72.30;;;;;;5078983;28;19915;-66
2022/08/17 06:43:38;;;;;;;;;;;22.00;72.40;;;;;;5077707;28;19912;-66
2022/08/17 06:46:03;;;;;;;;;;;22.00;72.30;;;;;;5079080;28;20003;-66
2022/08/17 06:48:48;;;;;;;;;;;22.10;72.40;;;;;;5082623;28;20088;-66
2022/08/17 06:51:20;;;;;;;;;;;22.10;72.40;;;;;;5077031;28;19916;-66
2022/08/17 06:53:49;;;;;;;;;;;22.10;72.40;;;;;;5077450;28;19916;-66
2022/08/17 06:56:41;;;;;;;;;;;22.20;72.30;;;;;;5082144;28;19940;-65
2022/08/17 06:59:09;;;;;;;;;;;22.20;72.40;;;;;;5075827;28;20489;-66
2022/08/17 07:01:36;;;;;;;;;;;22.20;72.50;;;;;;5086104;28;20429;-66
2022/08/17 07:04:28;;;;;;;;;;;22.20;72.40;;;;;;5073471;28;19912;-66
2022/08/17 07:07:00;;;;;;;;;;;22.20;72.50;;;;;;5081271;28;19920;-66
2022/08/17 07:09:32;;;;;;;;;;;22.30;72.40;;;;;;5080266;28;19923;-66
2022/08/17 07:12:01;;;;;;;;;;;22.30;72.30;;;;;;5080215;28;20392;-66
2022/08/17 07:14:36;;;;;;;;;;;22.40;73.00;;;;;;5079705;28;19912;-66
2022/08/17 07:17:09;;;;;;;;;;;22.40;72.30;;;;;;5077048;28;19963;-66
2022/08/17 07:19:39;;;;;;;;;;;22.40;72.30;;;;;;5086652;28;20013;-67
2022/08/17 07:22:04;;;;;;;;;;;22.50;72.20;;;;;;5079587;28;19909;-66
2022/08/17 07:24:36;;;;;;;;;;;22.50;72.10;;;;;;5077706;28;19908;-68
2022/08/17 07:27:13;;;;;;;;;;;22.50;72.00;;;;;;5074004;28;19913;-66
2022/08/17 07:29:40;;;;;;;;;;;22.60;72.00;;;;;;5081319;28;19912;-66
2022/08/17 07:32:07;;;;;;;;;;;22.60;72.00;;;;;;5085378;28;20277;-66
2022/08/17 07:34:52;;;;;;;;;;;22.70;71.80;;;;;;5082031;28;20368;-66
2022/08/17 07:37:18;;;;;;;;;;;22.70;71.60;;;;;;5066908;28;19938;-66
2022/08/17 07:39:43;;;;;;;;;;;22.70;71.50;;;;;;5066885;28;19916;-66
2022/08/17 07:42:09;;;;;;;;;;;22.70;71.40;;;;;;5067805;28;19921;-67
2022/08/17 07:44:46;;;;;;;;;;;22.80;71.30;;;;;;5066786;28;19916;-66
2022/08/17 07:49:58;;;;;;;;;;;22.90;71.00;;;;;;5069062;28;20004;-66
2022/08/17 07:52:28;;;;;;;;;;;22.90;70.70;;;;;;5066424;28;19995;-66
2022/08/17 07:54:54;;;;;;;;;;;23.00;70.60;;;;;;5067042;28;19944;-66
2022/08/17 07:57:22;;;;;;;;;;;23.10;70.40;;;;;;5066714;28;20001;-66
2022/08/17 08:00:00;;;;;;;;;;;23.10;70.10;;;;;;5067460;28;20002;-66
2022/08/17 08:02:29;;;;;;;;;;;23.20;70.10;;;;;;5078241;28;20260;-66
2022/08/17 08:05:03;;;;;;;;;;;23.30;70.00;;;;;;5066098;28;20421;-66
2022/08/17 08:07:37;;;;;;;;;;;23.30;69.90;;;;;;5066731;28;19947;-67
2022/08/17 08:10:03;;;;;;;;;;;23.30;69.90;;;;;;5066576;28;20373;-67
2022/08/17 08:12:41;;;;;;;;;;;23.40;69.70;;;;;;5066915;28;19913;-67
2022/08/17 08:15:08;;;;;;;;;;;23.40;70.10;;;;;;5068655;28;19917;-66
2022/08/17 08:17:43;;;;;;;;;;;23.40;69.60;;;;;;5072426;28;20032;-66
2022/08/17 08:20:09;;;;;;;;;;;23.50;69.20;;;;;;5084937;28;19965;-66
2022/08/17 08:22:53;;;;;;;;;;;23.60;69.10;;;;;;5085961;28;19915;-66
2022/08/17 08:25:58;;;;;;;;;;;23.60;68.90;;;;;;5085886;28;20002;-66
2022/08/17 08:28:32;;;;;;;;;;;23.70;68.80;;;;;;5063233;28;19991;-67
2022/08/17 08:31:13;;;;;;;;;;;23.80;68.70;;;;;;5062176;28;19919;-66
2022/08/17 08:33:44;;;;;;;;;;;23.80;68.50;;;;;;5070594;28;19916;-66
2022/08/17 08:36:12;;;;;;;;;;;23.90;68.40;;;;;;5085669;28;20434;-66
2022/08/17 08:38:43;;;;;;;;;;;23.90;68.20;;;;;;5085800;28;19915;-66
2022/08/17 08:41:11;;;;;;;;;;;24.00;68.00;;;;;;5085436;28;19980;-67
2022/08/17 08:43:42;;;;;;;;;;;24.00;67.90;;;;;;5085688;28;19912;-67
2022/08/17 08:46:07;;;;;;;;;;;24.10;67.80;;;;;;5111469;27;19920;-67
2022/08/17 08:48:51;;;;;;;;;;;24.10;67.70;;;;;;5079467;28;19916;-67
2022/08/17 08:51:35;;;;;;;;;;;24.10;67.70;;;;;;5066574;28;20452;-68
2022/08/17 08:54:19;;;;;;;;;;;24.20;67.70;;;;;;5079215;28;19916;-66
2022/08/17 08:57:02;;;;;;;;;;;24.20;67.70;;;;;;5066272;28;19916;-67
2022/08/17 08:59:33;;;;;;;;;;;24.20;67.60;;;;;;5066218;28;20700;-67
2022/08/17 09:02:04;;;;;;;;;;;24.30;67.60;;;;;;5069566;28;19916;-67
2022/08/17 09:04:50;;;;;;;;;;;24.30;67.40;;;;;;5068104;28;19965;-67
2022/08/17 09:07:28;;;;;;;;;;;24.40;67.30;;;;;;5066007;28;20437;-67
2022/08/17 09:10:00;;;;;;;;;;;24.50;67.30;;;;;;5065905;28;19924;-67
2022/08/17 09:12:34;;;;;;;;;;;24.50;67.10;;;;;;5065893;28;19913;-67
2022/08/17 09:15:02;;;;;;;;;;;24.50;67.00;;;;;;5101474;28;19916;-67
2022/08/17 09:17:35;;;;;;;;;;;24.60;67.00;;;;;;5073772;28;19973;-67
2022/08/17 09:20:10;;;;;;;;;;;24.60;67.10;;;;;;5069990;28;20376;-67
2022/08/17 09:22:42;;;;;;;;;;;24.60;67.20;;;;;;5085137;28;20116;-67
2022/08/17 09:25:20;;;;;;;;;;;24.60;67.30;;;;;;5089717;28;19944;-67
2022/08/17 09:27:58;;;;;;;;;;;24.50;67.20;;;;;;5089375;28;19914;-67
2022/08/17 09:30:25;;;;;;;;;;;24.50;67.30;;;;;;5089477;28;19914;-67
2022/08/17 09:32:58;;;;;;;;;;;24.60;67.40;;;;;;5085564;28;20233;-67
2022/08/17 09:35:29;;;;;;;;;;;24.50;67.30;;;;;;5073810;28;19913;-67
2022/08/17 09:37:54;;;;;;;;;;;24.50;67.40;;;;;;5070363;28;19916;-67
2022/08/17 09:40:23;;;;;;;;;;;24.50;67.50;;;;;;5069538;28;19924;-67
2022/08/17 09:43:04;;;;;;;;;;;24.50;67.50;;;;;;5069838;28;19912;-67
2022/08/17 09:45:45;;;;;;;;;;;24.50;67.50;;;;;;5073760;28;19926;-67
2022/08/17 09:48:17;;;;;;;;;;;24.50;67.50;;;;;;5069530;28;20503;-67
2022/08/17 09:50:44;;;;;;;;;;;24.50;67.60;;;;;;5082283;28;19923;-67
2022/08/17 09:53:10;;;;;;;;;;;24.50;67.60;;;;;;5069355;28;19913;-67
2022/08/17 09:56:02;;;;;;;;;;;24.50;67.70;;;;;;5081312;28;19947;-67
2022/08/17 09:58:32;;;;;;;;;;;24.50;67.70;;;;;;5083165;28;19912;-67
2022/08/17 10:01:06;;;;;;;;;;;24.50;67.70;;;;;;5088449;28;19923;-67
2022/08/17 10:03:52;;;;;;;;;;;24.50;67.80;;;;;;5077185;28;20334;-67
2022/08/17 10:06:21;;;;;;;;;;;24.50;67.70;;;;;;5082203;28;19912;-67
2022/08/17 10:08:50;;;;;;;;;;;24.50;67.70;;;;;;5089100;28;20027;-67
2022/08/17 10:11:17;;;;;;;;;;;24.50;67.80;;;;;;5074856;28;19980;-67
2022/08/17 10:14:03;;;;;;;;;;;24.50;67.70;;;;;;5082310;28;19919;-67
2022/08/17 10:16:58;;;;;;;;;;;24.50;67.90;;;;;;5076437;28;19952;-67
2022/08/17 10:19:30;;;;;;;;;;;24.50;67.90;;;;;;5067800;28;19912;-67
2022/08/17 10:27:51;;;;;;;;;;;24.50;67.90;;;;;;5086136;28;20609;-66
2022/08/17 10:30:19;;;;;;;;;;;24.50;67.80;;;;;;5068749;28;19913;-66
2022/08/17 10:32:44;;;;;;;;;;;24.50;67.80;;;;;;5071774;28;19912;-66
2022/08/17 10:35:25;;;;;;;;;;;24.50;67.90;;;;;;5067643;28;20284;-66
2022/08/17 10:37:58;;;;;;;;;;;24.50;67.90;;;;;;5069002;28;20306;-66
2022/08/17 10:40:31;;;;;;;;;;;24.50;68.00;;;;;;5068435;28;19916;-67
2022/08/17 10:43:03;;;;;;;;;;;24.40;68.10;;;;;;5068602;28;19962;-66
2022/08/17 10:45:34;;;;;;;;;;;24.40;68.80;;;;;;5076763;28;20293;-66
2022/08/17 10:48:06;;;;;;;;;;;24.40;68.10;;;;;;5068691;28;20357;-66
2022/08/17 10:50:46;;;;;;;;;;;24.40;68.10;;;;;;5068299;28;20300;-66
2022/08/17 10:53:30;;;;;;;;;;;24.40;68.10;;;;;;5081759;28;19916;-66
2022/08/17 10:56:11;;;;;;;;;;;24.40;68.10;;;;;;5088073;28;19988;-66
2022/08/17 10:58:56;;;;;;;;;;;24.30;68.10;;;;;;5087906;28;19922;-66
2022/08/17 11:01:31;;;;;;;;;;;24.40;68.20;;;;;;5085531;28;19920;-66
2022/08/17 11:03:58;;;;;;;;;;;24.30;68.20;;;;;;5073641;28;19916;-66
2022/08/17 11:06:32;;;;;;;;;;;24.30;68.20;;;;;;5073947;28;19931;-66
2022/08/17 11:08:58;;;;;;;;;;;24.30;68.30;;;;;;5068226;28;19923;-66
2022/08/17 11:11:27;;;;;;;;;;;24.30;68.30;;;;;;5067838;28;19912;-66
2022/08/17 11:13:53;;;;;;;;;;;24.30;68.30;;;;;;5068311;28;19923;-66
2022/08/17 11:16:18;;;;;;;;;;;24.30;68.30;;;;;;5075194;28;19916;-66
2022/08/17 11:19:08;;;;;;;;;;;24.30;68.40;;;;;;5069081;28;19908;-66
2022/08/17 11:21:52;;;;;;;;;;;24.20;68.40;;;;;;5068495;28;19920;-66
2022/08/17 11:24:19;;;;;;;;;;;24.20;68.50;;;;;;5074644;28;19916;-66
2022/08/17 11:27:00;;;;;;;;;;;24.20;68.40;;;;;;5068110;28;20447;-66
2022/08/17 11:29:29;;;;;;;;;;;24.20;68.40;;;;;;5081475;28;19934;-66
2022/08/17 11:32:12;;;;;;;;;;;24.20;68.50;;;;;;5086104;28;19912;-66
2022/08/17 11:34:39;;;;;;;;;;;24.20;68.50;;;;;;5069743;28;19919;-66
2022/08/17 11:37:24;;;;;;;;;;;24.20;68.50;;;;;;5071871;28;19923;-66
2022/08/17 11:40:08;;;;;;;;;;;24.20;68.50;;;;;;5066295;28;20288;-66
2022/08/17 11:42:45;;;;;;;;;;;24.20;68.40;;;;;;5081199;28;20252;-66
2022/08/17 11:45:25;;;;;;;;;;;24.10;68.40;;;;;;5083317;28;20015;-66
2022/08/17 11:53:36;;;;;;;;;;;24.20;68.40;;;;;;5067339;28;20589;-66
2022/08/17 11:56:02;;;;;;;;;;;24.20;68.40;;;;;;5067258;28;19934;-67
2022/08/17 11:58:28;;;;;;;;;;;24.20;68.40;;;;;;5067003;28;19938;-66
2022/08/17 12:00:55;;;;;;;;;;;24.20;69.10;;;;;;5066703;28;19916;-67
2022/08/17 12:03:25;;;;;;;;;;;24.20;68.50;;;;;;5072169;28;19913;-67
2022/08/17 12:05:59;;;;;;;;;;;24.20;68.50;;;;;;5067174;28;19947;-66
2022/08/17 12:08:26;;;;;;;;;;;24.10;68.50;;;;;;5078148;28;19914;-67
2022/08/17 12:10:58;;;;;;;;;;;24.20;68.60;;;;;;5086164;28;20593;-67
2022/08/17 12:13:24;;;;;;;;;;;24.20;68.50;;;;;;5086424;28;19962;-67
2022/08/17 12:15:51;;;;;;;;;;;24.20;68.40;;;;;;5077181;28;19962;-66
2022/08/17 12:18:21;;;;;;;;;;;24.30;68.40;;;;;;5069150;28;20050;-66
2022/08/17 12:20:57;;;;;;;;;;;24.30;68.40;;;;;;5066917;28;19957;-66
2022/08/17 12:23:28;;;;;;;;;;;24.40;68.30;;;;;;5066975;28;20584;-66
2022/08/17 12:25:55;;;;;;;;;;;24.40;68.40;;;;;;5065998;28;19982;-66
2022/08/17 12:28:32;;;;;;;;;;;24.50;68.20;;;;;;5066380;28;20467;-66
2022/08/17 12:31:02;;;;;;;;;;;24.50;68.20;;;;;;5065358;28;19955;-66
2022/08/17 12:33:28;;;;;;;;;;;24.70;68.00;;;;;;5068963;28;20023;-67
2022/08/17 12:35:55;;;;;;;;;;;24.80;67.50;;;;;;5072139;28;20008;-67
2022/08/17 12:38:20;;;;;;;;;;;24.90;67.20;;;;;;5065933;28;20016;-67
2022/08/17 12:40:53;;;;;;;;;;;25.00;67.00;;;;;;5079873;28;19916;-67
2022/08/17 12:43:20;;;;;;;;;;;25.10;67.20;;;;;;5078967;28;19947;-67
2022/08/17 12:45:55;;;;;;;;;;;25.20;67.00;;;;;;5079778;28;19916;-67
2022/08/17 12:48:22;;;;;;;;;;;25.20;66.90;;;;;;5085844;28;19999;-68
2022/08/17 12:50:48;;;;;;;;;;;25.20;66.90;;;;;;5084688;28;19951;-67
2022/08/17 12:53:29;;;;;;;;;;;25.30;66.80;;;;;;5076382;28;19912;-67
2022/08/17 12:55:55;;;;;;;;;;;25.30;66.70;;;;;;5065216;28;20138;-67
2022/08/17 12:58:23;;;;;;;;;;;25.40;67.00;;;;;;5065461;28;19912;-67
2022/08/17 13:01:03;;;;;;;;;;;25.50;66.50;;;;;;5065361;28;19921;-67
2022/08/17 13:03:34;;;;;;;;;;;25.60;66.40;;;;;;5071355;28;19912;-67
2022/08/17 13:06:05;;;;;;;;;;;25.80;66.30;;;;;;5066589;28;19958;-67
2022/08/17 13:08:34;;;;;;;;;;;25.90;66.20;;;;;;5067400;28;20607;-68
2022/08/17 13:11:02;;;;;;;;;;;26.10;65.50;;;;;;5065781;28;19920;-67
2022/08/17 13:13:33;;;;;;;;;;;26.20;65.50;;;;;;5065363;28;20215;-67
2022/08/17 13:15:59;;;;;;;;;;;26.30;65.40;;;;;;5071130;28;19970;-68
2022/08/17 13:18:33;;;;;;;;;;;26.40;65.10;;;;;;5078469;28;20425;-67
2022/08/17 13:20:59;;;;;;;;;;;26.40;65.10;;;;;;5074303;28;19928;-67
2022/08/17 13:23:28;;;;;;;;;;;26.50;65.10;;;;;;5066318;28;19955;-67
2022/08/17 13:26:04;;;;;;;;;;;26.60;64.90;;;;;;5067129;28;19938;-67
2022/08/17 13:28:31;;;;;;;;;;;26.70;65.10;;;;;;5065793;28;19912;-68
2022/08/17 13:31:15;;;;;;;;;;;26.80;65.30;;;;;;5077047;28;19912;-67
2022/08/17 13:33:41;;;;;;;;;;;26.90;65.00;;;;;;5073577;28;19951;-67
2022/08/17 13:36:07;;;;;;;;;;;27.00;64.60;;;;;;5077074;28;19970;-68
2022/08/17 13:38:39;;;;;;;;;;;27.10;64.90;;;;;;5065900;28;20864;-67
2022/08/17 13:41:06;;;;;;;;;;;27.10;64.70;;;;;;5065674;28;19966;-68
2022/08/17 13:43:39;;;;;;;;;;;27.20;64.70;;;;;;5080322;28;19912;-68
2022/08/17 13:46:09;;;;;;;;;;;27.20;64.70;;;;;;5072411;28;19991;-69
2022/08/17 13:48:34;;;;;;;;;;;27.30;64.80;;;;;;5075255;28;19978;-67
2022/08/17 13:51:04;;;;;;;;;;;27.40;65.10;;;;;;5065976;28;20404;-68
2022/08/17 13:53:35;;;;;;;;;;;27.40;64.80;;;;;;5080714;28;19926;-67
2022/08/17 13:56:11;;;;;;;;;;;27.50;64.70;;;;;;5078934;28;20378;-67
2022/08/17 13:58:49;;;;;;;;;;;27.60;64.50;;;;;;5071694;28;19916;-67
2022/08/17 14:01:33;;;;;;;;;;;27.60;64.30;;;;;;5073358;28;20544;-67
2022/08/17 14:04:00;;;;;;;;;;;27.70;64.40;;;;;;5080634;28;20019;-67
2022/08/17 14:06:30;;;;;;;;;;;27.80;64.30;;;;;;5082937;28;19916;-68
2022/08/17 14:08:56;;;;;;;;;;;27.90;64.10;;;;;;5086700;28;19986;-67
2022/08/17 14:11:22;;;;;;;;;;;28.00;64.10;;;;;;5068524;28;20766;-68
2022/08/17 14:13:48;;;;;;;;;;;28.00;63.90;;;;;;5075316;28;19923;-68
2022/08/17 14:16:14;;;;;;;;;;;28.10;64.10;;;;;;5076267;28;19912;-68
2022/08/17 14:18:40;;;;;;;;;;;28.10;64.20;;;;;;5068674;28;19912;-67
2022/08/17 14:21:07;;;;;;;;;;;28.20;64.50;;;;;;5068199;28;19916;-67
2022/08/17 14:23:34;;;;;;;;;;;28.20;64.40;;;;;;5081772;28;20690;-67
2022/08/17 14:25:59;;;;;;;;;;;28.30;64.00;;;;;;5067809;28;19912;-68
2022/08/17 14:28:25;;;;;;;;;;;28.30;64.10;;;;;;5083356;28;19916;-67
2022/08/17 14:30:50;;;;;;;;;;;28.40;64.30;;;;;;5068811;28;19908;-68
2022/08/17 14:33:23;;;;;;;;;;;28.40;64.20;;;;;;5070979;28;19912;-68
2022/08/17 14:35:50;;;;;;;;;;;28.40;64.00;;;;;;5068395;28;19933;-68
2022/08/17 14:38:16;;;;;;;;;;;28.40;64.10;;;;;;5087909;28;19912;-68
2022/08/17 14:40:41;;;;;;;;;;;28.50;64.20;;;;;;5087677;28;20375;-68
2022/08/17 14:43:07;;;;;;;;;;;28.50;64.00;;;;;;5087767;28;20584;-68
2022/08/17 14:45:33;;;;;;;;;;;28.60;64.00;;;;;;5081455;28;19923;-67
2022/08/17 14:47:59;;;;;;;;;;;28.60;63.90;;;;;;5081231;28;19913;-67
2022/08/17 14:50:25;;;;;;;;;;;28.70;63.70;;;;;;5070003;28;19962;-67
2022/08/17 14:52:51;;;;;;;;;;;28.90;63.40;;;;;;5068009;28;19965;-70
2022/08/17 14:55:20;;;;;;;;;;;29.00;63.10;;;;;;5067827;28;20612;-68
2022/08/17 14:57:45;;;;;;;;;;;29.00;63.10;;;;;;5068510;28;20406;-68
2022/08/17 15:00:11;;;;;;;;;;;29.10;63.10;;;;;;5068061;28;19912;-69